sensor_id;sensor_type;location;lat;lon;timestamp;temperature;humidity
23379;DHT22;11862;46.070;13.222;2022-10-17T00:00:29;15.10;99.90
23379;DHT22;11862;46.070;13.222;2022-10-17T00:02:55;15.00;99.90
23379;DHT22;11862;46.070;13.222;2022-10-17T00:05:22;15.00;99.90
23379;DHT22;11862;46.070;13.222;2022-10-17T00:07:48;15.00;99.90
23379;DHT22;11862;46.070;13.222;2022-10-17T00:10:14;15.00;99.90
23379;DHT22;11862;46.070;13.222;2022-10-17T00:12:40;15.00;99.90
23379;DHT22;11862;46.070;13.222;2022-10-17T00:15:07;14.90;99.90
23379;DHT22;11862;46.070;13.222;2022-10-17T00:17:36;14.90;99.90
23379;DHT22;11862;46.070;13.222;2022-10-17T00:20:03;14.80;99.90
23379;DHT22;11862;46.070;13.222;2022-10-17T00:22:29;14.80;99.90
23379;DHT22;11862;46.070;13.222;2022-10-17T00:24:57;14.80;99.90
23379;DHT22;11862;46.070;13.222;2022-10-17T00:27:23;14.70;99.90
23379;DHT22;11862;46.070;13.222;2022-10-17T00:29:50;14.80;99.90
23379;DHT22;11862;46.070;13.222;2022-10-17T00:32:16;14.70;99.90
23379;DHT22;11862;46.070;13.222;2022-10-17T00:34:42;14.70;99.90
23379;DHT22;11862;46.070;13.222;2022-10-17T00:37:08;14.70;99.90
23379;DHT22;11862;46.070;13.222;2022-10-17T00:39:34;14.60;99.90
23379;DHT22;11862;46.070;13.222;2022-10-17T00:42:00;14.60;99.90
23379;DHT22;11862;46.070;13.222;2022-10-17T00:47:01;14.60;99.90
23379;DHT22;11862;46.070;13.222;2022-10-17T00:49:29;14.50;99.90
23379;DHT22;11862;46.070;13.222;2022-10-17T00:52:02;14.60;99.90
23379;DHT22;11862;46.070;13.222;2022-10-17T00:54:35;14.70;99.90
23379;DHT22;11862;46.070;13.222;2022-10-17T00:57:02;14.80;99.90
23379;DHT22;11862;46.070;13.222;2022-10-17T00:59:29;14.70;99.90
23379;DHT22;11862;46.070;13.222;2022-10-17T01:02:03;14.70;99.90
23379;DHT22;11862;46.070;13.222;2022-10-17T01:04:30;14.60;99.90
23379;DHT22;11862;46.070;13.222;2022-10-17T01:06:56;14.60;99.90
23379;DHT22;11862;46.070;13.222;2022-10-17T01:09:23;14.60;99.90
23379;DHT22;11862;46.070;13.222;2022-10-17T01:12:06;14.50;99.90
23379;DHT22;11862;46.070;13.222;2022-10-17T01:20:31;14.50;99.90
23379;DHT22;11862;46.070;13.222;2022-10-17T01:26:25;14.50;99.90
23379;DHT22;11862;46.070;13.222;2022-10-17T01:29:22;14.40;99.90
23379;DHT22;11862;46.070;13.222;2022-10-17T01:32:01;14.40;99.90
23379;DHT22;11862;46.070;13.222;2022-10-17T01:34:38;14.40;99.90
23379;DHT22;11862;46.070;13.222;2022-10-17T01:37:21;14.40;99.90
23379;DHT22;11862;46.070;13.222;2022-10-17T01:45:06;14.40;99.90
23379;DHT22;11862;46.070;13.222;2022-10-17T01:47:33;14.50;99.90
23379;DHT22;11862;46.070;13.222;2022-10-17T01:50:12;14.50;99.90
23379;DHT22;11862;46.070;13.222;2022-10-17T01:52:47;14.40;99.90
23379;DHT22;11862;46.070;13.222;2022-10-17T01:55:17;14.40;99.90
23379;DHT22;11862;46.070;13.222;2022-10-17T01:57:50;14.40;99.90
23379;DHT22;11862;46.070;13.222;2022-10-17T02:00:21;14.40;99.90
23379;DHT22;11862;46.070;13.222;2022-10-17T02:02:51;14.40;99.90
23379;DHT22;11862;46.070;13.222;2022-10-17T02:05:21;14.40;99.90
23379;DHT22;11862;46.070;13.222;2022-10-17T02:07:49;14.40;99.90
23379;DHT22;11862;46.070;13.222;2022-10-17T02:10:25;14.40;99.90
23379;DHT22;11862;46.070;13.222;2022-10-17T02:21:13;14.40;99.90
23379;DHT22;11862;46.070;13.222;2022-10-17T02:26:54;14.20;99.90
23379;DHT22;11862;46.070;13.222;2022-10-17T02:29:26;14.20;99.90
23379;DHT22;11862;46.070;13.222;2022-10-17T02:32:19;14.20;99.90
23379;DHT22;11862;46.070;13.222;2022-10-17T02:34:51;14.30;99.90
23379;DHT22;11862;46.070;13.222;2022-10-17T02:37:23;14.20;99.90
23379;DHT22;11862;46.070;13.222;2022-10-17T02:39:50;14.20;99.90
23379;DHT22;11862;46.070;13.222;2022-10-17T02:42:17;14.20;99.90
23379;DHT22;11862;46.070;13.222;2022-10-17T02:44:45;14.20;99.90
23379;DHT22;11862;46.070;13.222;2022-10-17T02:49:56;14.20;99.90
23379;DHT22;11862;46.070;13.222;2022-10-17T02:52:44;14.20;99.90
23379;DHT22;11862;46.070;13.222;2022-10-17T02:57:48;14.20;99.90
23379;DHT22;11862;46.070;13.222;2022-10-17T03:00:17;14.10;99.90
23379;DHT22;11862;46.070;13.222;2022-10-17T03:02:46;14.20;99.90
23379;DHT22;11862;46.070;13.222;2022-10-17T03:05:15;14.20;99.90
23379;DHT22;11862;46.070;13.222;2022-10-17T03:07:41;14.20;99.90
23379;DHT22;11862;46.070;13.222;2022-10-17T03:10:08;14.20;99.90
23379;DHT22;11862;46.070;13.222;2022-10-17T03:12:34;14.20;99.90
23379;DHT22;11862;46.070;13.222;2022-10-17T03:15:00;14.10;99.90
23379;DHT22;11862;46.070;13.222;2022-10-17T03:17:26;14.10;99.90
23379;DHT22;11862;46.070;13.222;2022-10-17T03:19:52;14.10;99.90
23379;DHT22;11862;46.070;13.222;2022-10-17T03:22:18;14.20;99.90
23379;DHT22;11862;46.070;13.222;2022-10-17T03:24:44;14.20;99.90
23379;DHT22;11862;46.070;13.222;2022-10-17T03:27:10;14.10;99.90
23379;DHT22;11862;46.070;13.222;2022-10-17T03:29:36;14.10;99.90
23379;DHT22;11862;46.070;13.222;2022-10-17T03:32:02;14.10;99.90
23379;DHT22;11862;46.070;13.222;2022-10-17T03:34:28;14.10;99.90
23379;DHT22;11862;46.070;13.222;2022-10-17T03:36:57;14.10;99.90
23379;DHT22;11862;46.070;13.222;2022-10-17T03:39:23;14.10;99.90
23379;DHT22;11862;46.070;13.222;2022-10-17T03:41:49;14.10;99.90
23379;DHT22;11862;46.070;13.222;2022-10-17T03:44:15;14.10;99.90
23379;DHT22;11862;46.070;13.222;2022-10-17T03:46:41;14.20;99.90
23379;DHT22;11862;46.070;13.222;2022-10-17T03:49:08;14.10;99.90
23379;DHT22;11862;46.070;13.222;2022-10-17T03:51:34;14.20;99.90
23379;DHT22;11862;46.070;13.222;2022-10-17T03:54:00;14.20;99.90
23379;DHT22;11862;46.070;13.222;2022-10-17T03:56:26;14.30;99.90
23379;DHT22;11862;46.070;13.222;2022-10-17T03:58:53;14.30;99.90
23379;DHT22;11862;46.070;13.222;2022-10-17T04:01:20;14.40;99.90
23379;DHT22;11862;46.070;13.222;2022-10-17T04:03:51;14.50;99.90
23379;DHT22;11862;46.070;13.222;2022-10-17T04:06:18;14.40;99.90
23379;DHT22;11862;46.070;13.222;2022-10-17T04:08:44;14.50;99.90
23379;DHT22;11862;46.070;13.222;2022-10-17T04:11:13;14.50;99.90
23379;DHT22;11862;46.070;13.222;2022-10-17T04:13:40;14.50;99.90
23379;DHT22;11862;46.070;13.222;2022-10-17T04:16:09;14.50;99.90
23379;DHT22;11862;46.070;13.222;2022-10-17T04:18:36;14.40;99.90
23379;DHT22;11862;46.070;13.222;2022-10-17T04:21:06;14.30;99.90
23379;DHT22;11862;46.070;13.222;2022-10-17T04:23:32;14.30;99.90
23379;DHT22;11862;46.070;13.222;2022-10-17T04:25:59;14.30;99.90
23379;DHT22;11862;46.070;13.222;2022-10-17T04:28:28;14.40;99.90
23379;DHT22;11862;46.070;13.222;2022-10-17T04:31:00;14.40;99.90
23379;DHT22;11862;46.070;13.222;2022-10-17T04:33:26;14.30;99.90
23379;DHT22;11862;46.070;13.222;2022-10-17T04:36:00;14.20;99.90
23379;DHT22;11862;46.070;13.222;2022-10-17T04:38:27;14.10;99.90
23379;DHT22;11862;46.070;13.222;2022-10-17T04:40:53;14.20;99.90
23379;DHT22;11862;46.070;13.222;2022-10-17T04:43:21;14.20;99.90
23379;DHT22;11862;46.070;13.222;2022-10-17T04:45:47;14.10;99.90
23379;DHT22;11862;46.070;13.222;2022-10-17T04:48:13;14.10;99.90
23379;DHT22;11862;46.070;13.222;2022-10-17T04:50:39;14.20;99.90
23379;DHT22;11862;46.070;13.222;2022-10-17T04:53:04;14.10;99.90
23379;DHT22;11862;46.070;13.222;2022-10-17T04:55:31;14.20;99.90
23379;DHT22;11862;46.070;13.222;2022-10-17T04:58:06;14.20;99.90
23379;DHT22;11862;46.070;13.222;2022-10-17T05:00:32;14.20;99.90
23379;DHT22;11862;46.070;13.222;2022-10-17T05:02:57;14.20;99.90
23379;DHT22;11862;46.070;13.222;2022-10-17T05:05:27;14.20;99.90
23379;DHT22;11862;46.070;13.222;2022-10-17T05:07:53;14.20;99.90
23379;DHT22;11862;46.070;13.222;2022-10-17T05:10:19;14.20;99.90
23379;DHT22;11862;46.070;13.222;2022-10-17T05:12:46;14.20;99.90
23379;DHT22;11862;46.070;13.222;2022-10-17T05:15:13;14.10;99.90
23379;DHT22;11862;46.070;13.222;2022-10-17T05:17:38;14.10;99.90
23379;DHT22;11862;46.070;13.222;2022-10-17T05:20:05;14.10;99.90
23379;DHT22;11862;46.070;13.222;2022-10-17T05:22:31;14.00;99.90
23379;DHT22;11862;46.070;13.222;2022-10-17T05:24:57;13.90;99.90
23379;DHT22;11862;46.070;13.222;2022-10-17T05:27:23;13.90;99.90
23379;DHT22;11862;46.070;13.222;2022-10-17T05:29:49;13.80;99.90
23379;DHT22;11862;46.070;13.222;2022-10-17T05:32:16;13.70;99.90
23379;DHT22;11862;46.070;13.222;2022-10-17T05:34:42;13.70;99.90
23379;DHT22;11862;46.070;13.222;2022-10-17T05:37:08;13.70;99.90
23379;DHT22;11862;46.070;13.222;2022-10-17T05:39:37;13.80;99.90
23379;DHT22;11862;46.070;13.222;2022-10-17T05:42:10;13.80;99.90
23379;DHT22;11862;46.070;13.222;2022-10-17T05:44:40;13.80;99.90
23379;DHT22;11862;46.070;13.222;2022-10-17T05:47:22;13.80;99.90
23379;DHT22;11862;46.070;13.222;2022-10-17T05:50:07;13.90;99.90
23379;DHT22;11862;46.070;13.222;2022-10-17T05:53:00;14.10;99.90
23379;DHT22;11862;46.070;13.222;2022-10-17T05:55:44;14.20;99.90
23379;DHT22;11862;46.070;13.222;2022-10-17T05:58:18;14.30;99.90
23379;DHT22;11862;46.070;13.222;2022-10-17T06:04:36;14.40;99.90
23379;DHT22;11862;46.070;13.222;2022-10-17T06:07:05;14.60;99.90
23379;DHT22;11862;46.070;13.222;2022-10-17T06:09:41;14.70;99.90
23379;DHT22;11862;46.070;13.222;2022-10-17T06:12:10;14.90;99.90
23379;DHT22;11862;46.070;13.222;2022-10-17T06:14:39;15.30;99.90
23379;DHT22;11862;46.070;13.222;2022-10-17T06:17:05;15.80;99.90
23379;DHT22;11862;46.070;13.222;2022-10-17T06:19:32;16.30;99.90
23379;DHT22;11862;46.070;13.222;2022-10-17T06:22:01;16.90;99.90
23379;DHT22;11862;46.070;13.222;2022-10-17T06:24:31;17.20;99.90
23379;DHT22;11862;46.070;13.222;2022-10-17T06:27:02;17.70;99.90
23379;DHT22;11862;46.070;13.222;2022-10-17T06:29:31;18.00;99.90
23379;DHT22;11862;46.070;13.222;2022-10-17T06:32:05;18.20;99.90
23379;DHT22;11862;46.070;13.222;2022-10-17T06:34:35;18.40;99.90
23379;DHT22;11862;46.070;13.222;2022-10-17T06:37:15;18.80;99.90
23379;DHT22;11862;46.070;13.222;2022-10-17T06:39:42;19.30;99.90
23379;DHT22;11862;46.070;13.222;2022-10-17T06:42:09;19.80;99.90
23379;DHT22;11862;46.070;13.222;2022-10-17T06:44:35;20.10;99.90
23379;DHT22;11862;46.070;13.222;2022-10-17T06:47:15;20.40;99.90
23379;DHT22;11862;46.070;13.222;2022-10-17T06:49:42;20.90;99.90
23379;DHT22;11862;46.070;13.222;2022-10-17T06:52:12;20.90;99.90
23379;DHT22;11862;46.070;13.222;2022-10-17T06:54:45;21.10;99.90
23379;DHT22;11862;46.070;13.222;2022-10-17T06:57:23;21.50;99.90
23379;DHT22;11862;46.070;13.222;2022-10-17T07:00:10;21.10;99.90
23379;DHT22;11862;46.070;13.222;2022-10-17T07:02:46;21.50;99.90
23379;DHT22;11862;46.070;13.222;2022-10-17T07:05:31;21.40;99.90
23379;DHT22;11862;46.070;13.222;2022-10-17T07:08:03;22.00;99.90
23379;DHT22;11862;46.070;13.222;2022-10-17T07:10:33;22.00;99.90
23379;DHT22;11862;46.070;13.222;2022-10-17T07:13:06;21.70;99.90
23379;DHT22;11862;46.070;13.222;2022-10-17T07:15:45;21.70;99.90
23379;DHT22;11862;46.070;13.222;2022-10-17T07:18:22;22.80;99.90
23379;DHT22;11862;46.070;13.222;2022-10-17T07:20:55;23.20;99.90
23379;DHT22;11862;46.070;13.222;2022-10-17T07:23:25;22.50;99.90
23379;DHT22;11862;46.070;13.222;2022-10-17T07:26:05;22.00;99.90
23379;DHT22;11862;46.070;13.222;2022-10-17T07:28:34;22.60;99.90
23379;DHT22;11862;46.070;13.222;2022-10-17T07:31:13;23.50;99.90
23379;DHT22;11862;46.070;13.222;2022-10-17T07:33:40;23.70;99.90
23379;DHT22;11862;46.070;13.222;2022-10-17T07:36:11;24.00;99.90
23379;DHT22;11862;46.070;13.222;2022-10-17T07:38:41;23.90;99.90
23379;DHT22;11862;46.070;13.222;2022-10-17T07:41:11;23.30;99.90
23379;DHT22;11862;46.070;13.222;2022-10-17T07:43:38;23.10;99.90
23379;DHT22;11862;46.070;13.222;2022-10-17T07:46:11;23.60;99.90
23379;DHT22;11862;46.070;13.222;2022-10-17T07:48:39;23.10;99.90
23379;DHT22;11862;46.070;13.222;2022-10-17T07:51:14;23.00;99.90
23379;DHT22;11862;46.070;13.222;2022-10-17T07:53:48;23.10;99.90
23379;DHT22;11862;46.070;13.222;2022-10-17T07:56:18;23.10;99.90
23379;DHT22;11862;46.070;13.222;2022-10-17T07:58:50;23.50;99.90
23379;DHT22;11862;46.070;13.222;2022-10-17T08:01:31;23.00;99.90
23379;DHT22;11862;46.070;13.222;2022-10-17T08:06:55;23.30;99.90
23379;DHT22;11862;46.070;13.222;2022-10-17T08:09:28;23.10;99.90
23379;DHT22;11862;46.070;13.222;2022-10-17T08:11:58;22.90;99.90
23379;DHT22;11862;46.070;13.222;2022-10-17T08:14:35;23.10;99.90
23379;DHT22;11862;46.070;13.222;2022-10-17T08:17:09;24.20;99.90
23379;DHT22;11862;46.070;13.222;2022-10-17T08:19:44;25.10;99.90
23379;DHT22;11862;46.070;13.222;2022-10-17T08:22:11;24.80;99.90
23379;DHT22;11862;46.070;13.222;2022-10-17T08:24:40;24.60;99.90
23379;DHT22;11862;46.070;13.222;2022-10-17T08:27:08;25.10;99.90
23379;DHT22;11862;46.070;13.222;2022-10-17T08:29:39;25.90;99.90
23379;DHT22;11862;46.070;13.222;2022-10-17T08:32:07;25.80;99.90
23379;DHT22;11862;46.070;13.222;2022-10-17T08:34:44;25.20;99.90
23379;DHT22;11862;46.070;13.222;2022-10-17T08:37:20;25.00;99.90
23379;DHT22;11862;46.070;13.222;2022-10-17T08:39:47;25.10;99.90
23379;DHT22;11862;46.070;13.222;2022-10-17T08:42:55;25.70;99.90
23379;DHT22;11862;46.070;13.222;2022-10-17T08:45:53;26.70;99.90
23379;DHT22;11862;46.070;13.222;2022-10-17T08:48:24;27.40;99.90
23379;DHT22;11862;46.070;13.222;2022-10-17T08:51:12;28.00;99.90
23379;DHT22;11862;46.070;13.222;2022-10-17T08:53:57;27.00;99.90
23379;DHT22;11862;46.070;13.222;2022-10-17T08:56:53;27.20;99.90
23379;DHT22;11862;46.070;13.222;2022-10-17T08:59:26;27.90;99.90
23379;DHT22;11862;46.070;13.222;2022-10-17T09:05:21;27.10;99.90
23379;DHT22;11862;46.070;13.222;2022-10-17T09:19:36;28.70;99.90
23379;DHT22;11862;46.070;13.222;2022-10-17T09:22:10;28.90;99.90
23379;DHT22;11862;46.070;13.222;2022-10-17T09:29:51;29.10;99.90
23379;DHT22;11862;46.070;13.222;2022-10-17T09:32:23;29.40;99.90
23379;DHT22;11862;46.070;13.222;2022-10-17T09:34:53;28.90;99.90
23379;DHT22;11862;46.070;13.222;2022-10-17T09:37:27;28.30;99.90
23379;DHT22;11862;46.070;13.222;2022-10-17T09:39:56;28.40;99.90
23379;DHT22;11862;46.070;13.222;2022-10-17T09:42:44;28.40;99.90
23379;DHT22;11862;46.070;13.222;2022-10-17T09:45:23;28.60;99.90
23379;DHT22;11862;46.070;13.222;2022-10-17T09:50:32;28.50;99.90
23379;DHT22;11862;46.070;13.222;2022-10-17T09:56:16;28.50;99.90
23379;DHT22;11862;46.070;13.222;2022-10-17T09:58:46;28.40;99.90
23379;DHT22;11862;46.070;13.222;2022-10-17T10:01:39;29.00;99.90
23379;DHT22;11862;46.070;13.222;2022-10-17T10:04:13;28.40;99.90
23379;DHT22;11862;46.070;13.222;2022-10-17T10:07:05;28.80;99.90
23379;DHT22;11862;46.070;13.222;2022-10-17T10:09:35;27.90;99.90
23379;DHT22;11862;46.070;13.222;2022-10-17T10:12:13;27.40;99.90
23379;DHT22;11862;46.070;13.222;2022-10-17T10:14:43;27.90;99.90
23379;DHT22;11862;46.070;13.222;2022-10-17T10:17:38;28.40;99.90
23379;DHT22;11862;46.070;13.222;2022-10-17T10:20:29;28.10;99.90
23379;DHT22;11862;46.070;13.222;2022-10-17T10:23:20;28.50;99.90
23379;DHT22;11862;46.070;13.222;2022-10-17T10:25:56;28.00;99.90
23379;DHT22;11862;46.070;13.222;2022-10-17T10:28:29;28.50;99.90
23379;DHT22;11862;46.070;13.222;2022-10-17T10:30:58;28.50;99.90
23379;DHT22;11862;46.070;13.222;2022-10-17T10:33:28;28.20;99.90
23379;DHT22;11862;46.070;13.222;2022-10-17T10:36:00;28.50;99.90
23379;DHT22;11862;46.070;13.222;2022-10-17T10:38:32;29.00;99.90
23379;DHT22;11862;46.070;13.222;2022-10-17T10:41:07;28.80;99.90
23379;DHT22;11862;46.070;13.222;2022-10-17T10:43:46;28.80;99.90
23379;DHT22;11862;46.070;13.222;2022-10-17T10:46:21;28.00;99.90
23379;DHT22;11862;46.070;13.222;2022-10-17T10:48:54;28.10;99.90
23379;DHT22;11862;46.070;13.222;2022-10-17T10:51:32;28.10;99.90
23379;DHT22;11862;46.070;13.222;2022-10-17T10:54:23;28.10;99.90
23379;DHT22;11862;46.070;13.222;2022-10-17T10:57:00;27.50;99.90
23379;DHT22;11862;46.070;13.222;2022-10-17T11:05:58;27.80;99.90
23379;DHT22;11862;46.070;13.222;2022-10-17T11:09:02;27.40;99.90
23379;DHT22;11862;46.070;13.222;2022-10-17T11:11:55;27.60;99.90
23379;DHT22;11862;46.070;13.222;2022-10-17T11:14:47;27.40;99.90
23379;DHT22;11862;46.070;13.222;2022-10-17T11:17:38;27.30;99.90
23379;DHT22;11862;46.070;13.222;2022-10-17T11:23:20;27.40;99.90
23379;DHT22;11862;46.070;13.222;2022-10-17T11:25:51;27.90;99.90
23379;DHT22;11862;46.070;13.222;2022-10-17T11:28:20;27.50;99.90
23379;DHT22;11862;46.070;13.222;2022-10-17T11:30:58;27.40;99.90
23379;DHT22;11862;46.070;13.222;2022-10-17T11:33:45;27.30;99.90
23379;DHT22;11862;46.070;13.222;2022-10-17T11:36:14;27.10;99.90
23379;DHT22;11862;46.070;13.222;2022-10-17T11:38:57;26.70;99.90
23379;DHT22;11862;46.070;13.222;2022-10-17T11:42:14;26.50;99.90
23379;DHT22;11862;46.070;13.222;2022-10-17T11:44:38;26.40;99.90
23379;DHT22;11862;46.070;13.222;2022-10-17T11:47:36;26.30;99.90
23379;DHT22;11862;46.070;13.222;2022-10-17T11:52:41;26.30;99.90
23379;DHT22;11862;46.070;13.222;2022-10-17T11:55:23;26.20;99.90
23379;DHT22;11862;46.070;13.222;2022-10-17T12:06:31;25.80;99.90
23379;DHT22;11862;46.070;13.222;2022-10-17T12:11:59;25.70;99.90
23379;DHT22;11862;46.070;13.222;2022-10-17T12:14:39;25.70;99.90
23379;DHT22;11862;46.070;13.222;2022-10-17T12:17:26;25.60;99.90
23379;DHT22;11862;46.070;13.222;2022-10-17T12:19:52;25.50;99.90
23379;DHT22;11862;46.070;13.222;2022-10-17T12:22:24;25.50;99.90
23379;DHT22;11862;46.070;13.222;2022-10-17T12:24:54;25.30;99.90
23379;DHT22;11862;46.070;13.222;2022-10-17T12:27:41;25.30;99.90
23379;DHT22;11862;46.070;13.222;2022-10-17T12:35:26;25.20;99.90
23379;DHT22;11862;46.070;13.222;2022-10-17T12:45:54;25.00;99.90
23379;DHT22;11862;46.070;13.222;2022-10-17T12:51:15;25.10;99.90
23379;DHT22;11862;46.070;13.222;2022-10-17T12:56:13;25.00;99.90
23379;DHT22;11862;46.070;13.222;2022-10-17T12:58:46;24.90;99.90
23379;DHT22;11862;46.070;13.222;2022-10-17T13:01:33;24.80;99.90
23379;DHT22;11862;46.070;13.222;2022-10-17T13:04:02;24.80;99.90
23379;DHT22;11862;46.070;13.222;2022-10-17T13:06:33;24.70;99.90
23379;DHT22;11862;46.070;13.222;2022-10-17T13:09:07;24.70;99.90
23379;DHT22;11862;46.070;13.222;2022-10-17T13:11:36;24.70;99.90
23379;DHT22;11862;46.070;13.222;2022-10-17T13:14:13;24.60;99.90
23379;DHT22;11862;46.070;13.222;2022-10-17T13:19:21;24.60;99.90
23379;DHT22;11862;46.070;13.222;2022-10-17T13:22:00;24.60;99.90
23379;DHT22;11862;46.070;13.222;2022-10-17T13:24:31;24.60;99.90
23379;DHT22;11862;46.070;13.222;2022-10-17T13:26:58;24.60;99.90
23379;DHT22;11862;46.070;13.222;2022-10-17T13:29:25;24.60;99.90
23379;DHT22;11862;46.070;13.222;2022-10-17T13:31:56;24.60;99.90
23379;DHT22;11862;46.070;13.222;2022-10-17T13:34:26;24.60;99.90
23379;DHT22;11862;46.070;13.222;2022-10-17T13:36:55;24.50;99.90
23379;DHT22;11862;46.070;13.222;2022-10-17T13:39:24;24.40;99.90
23379;DHT22;11862;46.070;13.222;2022-10-17T13:41:52;24.40;99.90
23379;DHT22;11862;46.070;13.222;2022-10-17T13:44:21;24.30;99.90
23379;DHT22;11862;46.070;13.222;2022-10-17T13:46:48;24.30;99.90
23379;DHT22;11862;46.070;13.222;2022-10-17T13:49:39;24.20;99.90
23379;DHT22;11862;46.070;13.222;2022-10-17T13:52:13;24.10;99.90
23379;DHT22;11862;46.070;13.222;2022-10-17T13:54:42;24.10;99.90
23379;DHT22;11862;46.070;13.222;2022-10-17T13:57:23;24.00;99.90
23379;DHT22;11862;46.070;13.222;2022-10-17T13:59:56;24.00;99.90
23379;DHT22;11862;46.070;13.222;2022-10-17T14:02:25;24.00;99.90
23379;DHT22;11862;46.070;13.222;2022-10-17T14:05:11;24.00;99.90
23379;DHT22;11862;46.070;13.222;2022-10-17T14:07:51;24.00;99.90
23379;DHT22;11862;46.070;13.222;2022-10-17T14:10:23;24.00;99.90
23379;DHT22;11862;46.070;13.222;2022-10-17T14:12:51;23.90;99.90
23379;DHT22;11862;46.070;13.222;2022-10-17T14:15:18;23.80;99.90
23379;DHT22;11862;46.070;13.222;2022-10-17T14:17:45;23.70;99.90
23379;DHT22;11862;46.070;13.222;2022-10-17T14:20:18;23.80;99.90
23379;DHT22;11862;46.070;13.222;2022-10-17T14:22:48;23.70;99.90
23379;DHT22;11862;46.070;13.222;2022-10-17T14:25:33;23.60;99.90
23379;DHT22;11862;46.070;13.222;2022-10-17T14:30:48;23.60;99.90
23379;DHT22;11862;46.070;13.222;2022-10-17T14:35:54;23.70;99.90
23379;DHT22;11862;46.070;13.222;2022-10-17T14:38:21;23.60;99.90
23379;DHT22;11862;46.070;13.222;2022-10-17T14:40:55;23.60;99.90
23379;DHT22;11862;46.070;13.222;2022-10-17T14:43:28;23.60;99.90
23379;DHT22;11862;46.070;13.222;2022-10-17T14:45:59;23.50;99.90
23379;DHT22;11862;46.070;13.222;2022-10-17T14:48:28;23.50;99.90
23379;DHT22;11862;46.070;13.222;2022-10-17T14:53:35;23.30;99.90
23379;DHT22;11862;46.070;13.222;2022-10-17T14:56:04;23.30;99.90
23379;DHT22;11862;46.070;13.222;2022-10-17T14:58:34;23.30;99.90
23379;DHT22;11862;46.070;13.222;2022-10-17T15:01:04;23.20;99.90
23379;DHT22;11862;46.070;13.222;2022-10-17T15:03:30;23.20;99.90
23379;DHT22;11862;46.070;13.222;2022-10-17T15:05:56;23.10;99.90
23379;DHT22;11862;46.070;13.222;2022-10-17T15:08:23;23.00;99.90
23379;DHT22;11862;46.070;13.222;2022-10-17T15:10:50;23.00;99.90
23379;DHT22;11862;46.070;13.222;2022-10-17T15:13:18;23.00;99.90
23379;DHT22;11862;46.070;13.222;2022-10-17T15:15:44;22.90;99.90
23379;DHT22;11862;46.070;13.222;2022-10-17T15:18:13;22.90;99.90
23379;DHT22;11862;46.070;13.222;2022-10-17T15:20:39;22.80;99.90
23379;DHT22;11862;46.070;13.222;2022-10-17T15:23:05;22.80;99.90
23379;DHT22;11862;46.070;13.222;2022-10-17T15:25:31;22.80;99.90
23379;DHT22;11862;46.070;13.222;2022-10-17T15:27:58;22.70;99.90
23379;DHT22;11862;46.070;13.222;2022-10-17T15:30:26;22.60;99.90
23379;DHT22;11862;46.070;13.222;2022-10-17T15:32:53;22.60;99.90
23379;DHT22;11862;46.070;13.222;2022-10-17T15:35:20;22.50;99.90
23379;DHT22;11862;46.070;13.222;2022-10-17T15:37:47;22.40;99.90
23379;DHT22;11862;46.070;13.222;2022-10-17T15:40:16;22.40;99.90
23379;DHT22;11862;46.070;13.222;2022-10-17T15:42:42;22.30;99.90
23379;DHT22;11862;46.070;13.222;2022-10-17T15:45:12;22.30;99.90
23379;DHT22;11862;46.070;13.222;2022-10-17T15:47:41;22.20;99.90
23379;DHT22;11862;46.070;13.222;2022-10-17T15:50:14;22.10;99.90
23379;DHT22;11862;46.070;13.222;2022-10-17T15:52:40;22.00;99.90
23379;DHT22;11862;46.070;13.222;2022-10-17T15:55:08;21.90;99.90
23379;DHT22;11862;46.070;13.222;2022-10-17T15:57:40;21.90;99.90
23379;DHT22;11862;46.070;13.222;2022-10-17T16:00:16;21.80;99.90
23379;DHT22;11862;46.070;13.222;2022-10-17T16:02:44;21.70;99.90
23379;DHT22;11862;46.070;13.222;2022-10-17T16:07:42;21.60;99.90
23379;DHT22;11862;46.070;13.222;2022-10-17T16:10:11;21.50;99.90
23379;DHT22;11862;46.070;13.222;2022-10-17T16:12:40;21.40;99.90
23379;DHT22;11862;46.070;13.222;2022-10-17T16:15:27;21.30;99.90
23379;DHT22;11862;46.070;13.222;2022-10-17T16:17:55;21.20;99.90
23379;DHT22;11862;46.070;13.222;2022-10-17T16:20:23;21.10;99.90
23379;DHT22;11862;46.070;13.222;2022-10-17T16:22:50;20.90;99.90
23379;DHT22;11862;46.070;13.222;2022-10-17T16:25:27;20.80;99.90
23379;DHT22;11862;46.070;13.222;2022-10-17T16:27:56;20.70;99.90
23379;DHT22;11862;46.070;13.222;2022-10-17T16:30:26;20.60;99.90
23379;DHT22;11862;46.070;13.222;2022-10-17T16:32:52;20.50;99.90
23379;DHT22;11862;46.070;13.222;2022-10-17T16:35:29;20.40;99.90
23379;DHT22;11862;46.070;13.222;2022-10-17T16:37:55;20.30;99.90
23379;DHT22;11862;46.070;13.222;2022-10-17T16:40:24;20.30;99.90
23379;DHT22;11862;46.070;13.222;2022-10-17T16:42:50;20.30;99.90
23379;DHT22;11862;46.070;13.222;2022-10-17T16:45:19;20.20;99.90
23379;DHT22;11862;46.070;13.222;2022-10-17T16:47:46;20.10;99.90
23379;DHT22;11862;46.070;13.222;2022-10-17T16:50:13;20.10;99.90
23379;DHT22;11862;46.070;13.222;2022-10-17T16:52:39;20.00;99.90
23379;DHT22;11862;46.070;13.222;2022-10-17T16:55:06;20.00;99.90
23379;DHT22;11862;46.070;13.222;2022-10-17T16:57:32;20.00;99.90
23379;DHT22;11862;46.070;13.222;2022-10-17T16:59:58;19.90;99.90
23379;DHT22;11862;46.070;13.222;2022-10-17T17:02:27;19.90;99.90
23379;DHT22;11862;46.070;13.222;2022-10-17T17:04:53;19.90;99.90
23379;DHT22;11862;46.070;13.222;2022-10-17T17:07:19;19.90;99.90
23379;DHT22;11862;46.070;13.222;2022-10-17T17:09:46;19.90;99.90
23379;DHT22;11862;46.070;13.222;2022-10-17T17:12:12;19.90;99.90
23379;DHT22;11862;46.070;13.222;2022-10-17T17:14:38;19.80;99.90
23379;DHT22;11862;46.070;13.222;2022-10-17T17:17:04;19.80;99.90
23379;DHT22;11862;46.070;13.222;2022-10-17T17:19:30;19.80;99.90
23379;DHT22;11862;46.070;13.222;2022-10-17T17:21:56;19.90;99.90
23379;DHT22;11862;46.070;13.222;2022-10-17T17:24:23;19.90;99.90
23379;DHT22;11862;46.070;13.222;2022-10-17T17:26:54;19.90;99.90
23379;DHT22;11862;46.070;13.222;2022-10-17T17:29:24;19.90;99.90
23379;DHT22;11862;46.070;13.222;2022-10-17T17:31:50;19.80;99.90
23379;DHT22;11862;46.070;13.222;2022-10-17T17:34:16;19.80;99.90
23379;DHT22;11862;46.070;13.222;2022-10-17T17:36:42;19.80;99.90
23379;DHT22;11862;46.070;13.222;2022-10-17T17:39:11;19.70;99.90
23379;DHT22;11862;46.070;13.222;2022-10-17T17:41:38;19.70;99.90
23379;DHT22;11862;46.070;13.222;2022-10-17T17:44:05;19.60;99.90